Terminal Aerodrome Forecast
Issued by NWS

Home | Current Version | Previous Version | Text Only | Print | Product List | Glossary On
Versions: 1 2 3 4 5 6 7 8 9 10 11 12 13 14 15 16 17
621
FTUS45 KVEF 201736
TAFVGT
TAF
KVGT 201736Z 2018/2118 15009KT P6SM FEW040 BKN050 BKN110
     FM202000 17012G20KT P6SM SCT050 BKN110
     FM210200 17008KT P6SM SCT050 BKN080=

USA.gov is the U.S. government's official web portal to all federal, state and local government web resources and services.